Time;durP1;ratioP1;P1;durP2;ratioP2;P2;SDS_P1;SDS_P2;PMS_P1;PMS_P2;Temp;Humidity;BMP_temperature;BMP_pressure;BME280_temperature;BME280_humidity;BME280_pressure;Samples;Min_cycle;Max_cycle;Signal;HPM_P1;HPM_P2
2023/01/31 00:02:12;;;;;;;16.45;3.50;;;;;;;4.26;89.82;101556.13;5112761;28;20050;-73
2023/01/31 00:05:16;;;;;;;26.08;10.20;;;;;;;4.23;89.82;101548.41;5113444;28;20049;-73
2023/01/31 00:08:19;;;;;;;;;;;;;;;4.11;91.07;101551.09;5113805;28;20066;-73
2023/01/31 00:11:25;;;;;;;19.08;5.65;;;;;;;3.95;91.71;101540.03;5113664;28;20387;-74
2023/01/31 00:14:28;;;;;;;37.53;13.68;;;;;;;3.99;91.13;101531.38;5113576;28;20093;-73
2023/01/31 00:17:31;;;;;;;46.88;20.30;;;;;;;3.90;89.87;101550.44;5112966;28;20100;-73
2023/01/31 00:20:35;;;;;;;;;;;;;;;4.00;89.34;101546.03;5110923;28;20400;-74
2023/01/31 00:23:39;;;;;;;23.42;7.30;;;;;;;3.98;89.16;101540.00;5112364;28;19936;-74
2023/01/31 00:26:42;;;;;;;11.18;2.92;;;;;;;3.97;89.11;101541.72;5112752;28;20051;-74
2023/01/31 00:29:46;;;;;;;;;;;;;;;3.95;88.66;101530.53;5113604;28;20088;-75
2023/01/31 00:32:49;;;;;;;18.98;5.35;;;;;;;3.80;88.74;101540.16;5100481;28;19919;-74
2023/01/31 00:36:43;;;;;;;18.08;4.70;;;;;;;3.83;87.78;101546.19;5112616;28;20047;-74
2023/01/31 00:39:46;;;;;;;17.77;5.97;;;;;;;3.81;88.12;101553.09;5110421;28;20101;-74
2023/01/31 00:42:53;;;;;;;17.30;5.13;;;;;;;3.85;87.88;101549.59;5111665;28;20058;-74
2023/01/31 00:46:22;;;;;;;56.30;34.80;;;;;;;3.58;89.41;101560.16;5111182;28;20077;-74
2023/01/31 00:49:25;;;;;;;44.95;21.00;;;;;;;3.76;88.69;101572.94;5115288;28;20096;-73
2023/01/31 00:52:29;;;;;;;41.72;22.27;;;;;;;3.80;88.39;101560.84;5116767;28;20051;-73
2023/01/31 00:55:33;;;;;;;26.48;7.25;;;;;;;3.80;87.73;101572.06;5116299;28;20096;-74
2023/01/31 00:58:38;;;;;;;46.80;25.85;;;;;;;3.80;87.40;101577.25;5104517;28;20043;-74
2023/01/31 01:01:41;;;;;;;17.48;5.32;;;;;;;3.80;87.53;101561.72;5115671;28;20043;-74
2023/01/31 01:04:45;;;;;;;26.98;16.20;;;;;;;3.90;87.50;101563.38;5116068;28;20096;-74
2023/01/31 01:07:48;;;;;;;26.48;11.93;;;;;;;3.68;86.91;101562.66;5116011;28;20101;-74
2023/01/31 01:10:52;;;;;;;18.20;4.80;;;;;;;3.65;85.65;101561.84;5115810;28;20469;-74
2023/01/31 01:13:57;;;;;;;20.48;6.70;;;;;;;3.61;86.06;101570.50;5116625;28;20265;-75
2023/01/31 01:17:00;;;;;;;27.15;12.15;;;;;;;3.67;86.86;101570.41;5104116;28;20126;-75
2023/01/31 01:20:04;;;;;;;27.27;11.50;;;;;;;3.70;86.71;101566.13;5116227;28;20108;-75
2023/01/31 01:23:07;;;;;;;19.50;5.10;;;;;;;3.47;87.14;101575.72;5115423;28;20054;-74
2023/01/31 01:26:14;;;;;;;;;;;;;;;3.43;87.77;101567.13;5115994;28;20054;-73
2023/01/31 01:29:18;;;;;;;15.50;4.65;;;;;;;3.47;87.53;101566.25;5116432;28;19919;-73
2023/01/31 01:32:21;;;;;;;18.90;5.90;;;;;;;3.40;87.91;101571.47;5116490;28;20081;-74
2023/01/31 01:35:24;;;;;;;17.17;4.95;;;;;;;3.50;87.54;101563.63;5115608;28;20054;-74
2023/01/31 01:38:27;;;;;;;20.08;3.42;;;;;;;3.65;87.34;101573.03;5116530;28;20046;-74
2023/01/31 01:41:35;;;;;;;18.98;3.38;;;;;;;3.66;87.01;101574.75;5116211;28;20565;-74
2023/01/31 01:44:42;;;;;;;16.98;3.53;;;;;;;3.69;86.94;101571.28;5116073;28;20046;-74
2023/01/31 01:47:49;;;;;;;18.80;3.25;;;;;;;3.77;86.91;101572.09;5116105;28;20482;-74
2023/01/31 01:50:53;;;;;;;23.92;3.95;;;;;;;3.63;87.08;101574.75;5115954;28;20103;-74
2023/01/31 01:54:07;;;;;;;15.88;2.83;;;;;;;3.73;86.92;101575.56;5116040;28;20470;-74
2023/01/31 01:57:18;;;;;;;12.77;3.10;;;;;;;3.82;86.56;101575.50;5114980;28;20483;-73
2023/01/31 02:00:27;;;;;;;15.18;3.38;;;;;;;3.84;86.62;101578.94;5115015;28;20042;-73
2023/01/31 02:03:30;;;;;;;18.52;3.20;;;;;;;3.81;87.04;101576.38;5116133;28;20409;-74
2023/01/31 02:06:37;;;;;;;16.88;2.90;;;;;;;3.85;87.61;101575.47;5114088;28;20043;-73
2023/01/31 02:09:40;;;;;;;;;;;;;;;3.63;88.83;101569.59;5116136;28;20507;-73
2023/01/31 02:12:45;;;;;;;18.75;2.95;;;;;;;3.87;88.16;101572.88;5115845;28;20375;-73
2023/01/31 02:15:48;;;;;;;16.38;3.63;;;;;;;3.91;88.04;101566.81;5115380;28;20100;-73
2023/01/31 02:18:52;;;;;;;;;;;;;;;3.92;87.59;101558.16;5115379;28;20159;-73
2023/01/31 02:22:08;;;;;;;15.63;3.78;;;;;;;3.88;88.31;101554.75;5114089;28;19918;-74
2023/01/31 02:25:25;;;;;;;21.77;3.60;;;;;;;3.67;88.90;101557.50;5114217;28;20059;-74
2023/01/31 02:28:32;;;;;;;12.52;2.70;;;;;;;3.82;88.70;101564.28;5114138;28;20089;-73
2023/01/31 02:32:19;;;;;;;13.70;3.03;;;;;;;3.62;89.72;101547.19;5101360;28;20051;-73
2023/01/31 02:35:47;;;;;;;17.50;2.92;;;;;;;3.50;90.16;101552.44;5114066;28;20126;-74
2023/01/31 02:38:59;;;;;;;19.30;3.20;;;;;;;3.23;90.86;101553.47;5102474;28;20072;-73
2023/01/31 02:42:11;;;;;;;14.82;3.28;;;;;;;3.22;90.10;101556.91;5114376;28;20123;-73
2023/01/31 02:45:34;;;;;;;;;;;;;;;3.31;88.29;101558.59;5114182;28;20042;-73
2023/01/31 02:48:48;;;;;;;11.55;2.72;;;;;;;3.32;87.84;101562.88;5114024;28;19956;-73
2023/01/31 02:52:15;;;;;;;14.70;3.08;;;;;;;3.33;87.40;101559.47;5113902;28;20577;-73
2023/01/31 02:59:11;;;;;;;17.27;2.78;;;;;;;3.31;87.17;101567.22;5113708;28;20469;-73
2023/01/31 03:02:14;;;;;;;16.13;3.65;;;;;;;3.32;87.11;101574.13;5113636;28;20096;-73
2023/01/31 03:05:19;;;;;;;14.88;4.15;;;;;;;3.26;87.25;101579.31;5113847;28;20101;-73
2023/01/31 03:13:07;;;;;;;20.98;3.38;;;;;;;3.31;86.95;101582.72;5113645;28;20573;-73
2023/01/31 03:20:13;;;;;;;11.70;3.17;;;;;;;3.26;86.88;101584.50;5113163;28;20051;-74
2023/01/31 03:23:20;;;;;;;14.43;2.40;;;;;;;3.19;86.71;101587.94;5113432;28;20050;-74
2023/01/31 03:26:25;;;;;;;21.02;3.72;;;;;;;3.10;86.73;101586.28;5113328;28;20103;-74
2023/01/31 03:29:34;;;;;;;14.20;3.13;;;;;;;3.10;86.72;101582.84;5113336;28;20539;-74
2023/01/31 03:32:47;;;;;;;18.17;3.10;;;;;;;3.02;86.59;101591.47;5114398;28;20606;-74
2023/01/31 03:36:06;;;;;;;13.45;2.67;;;;;;;2.91;86.61;101593.25;5113225;28;20515;-73
2023/01/31 03:39:28;;;;;;;13.27;2.50;;;;;;;2.90;86.56;101588.91;5113072;28;20046;-73
2023/01/31 03:42:40;;;;;;;15.77;2.50;;;;;;;2.83;86.59;101597.56;5113376;28;20046;-73
2023/01/31 03:45:44;;;;;;;18.13;5.32;;;;;;;2.70;86.85;101603.63;5113299;28;20065;-73
2023/01/31 03:48:52;;;;;;;12.88;2.42;;;;;;;2.71;86.02;101616.56;5112956;28;20588;-73
2023/01/31 03:52:05;;;;;;;11.90;2.40;;;;;;;2.54;86.06;101598.50;5112935;28;20047;-73
2023/01/31 03:55:17;;;;;;;16.70;3.47;;;;;;;2.55;86.27;101595.06;5112900;28;20054;-73
2023/01/31 03:58:25;;;;;;;16.60;2.63;;;;;;;2.53;85.93;101596.78;5112997;28;20046;-73
2023/01/31 04:01:33;;;;;;;8.02;2.15;;;;;;;2.48;86.31;101600.22;5112857;28;20120;-73
2023/01/31 04:04:41;;;;;;;13.48;2.88;;;;;;;2.29;86.09;101605.41;5112970;28;20096;-73
2023/01/31 04:07:47;;;;;;;9.80;2.42;;;;;;;2.29;86.53;101592.50;5112978;28;20043;-73
2023/01/31 04:10:59;;;;;;;11.77;1.98;;;;;;;2.32;86.33;101596.81;5112248;28;20077;-73
2023/01/31 04:14:02;;;;;;;14.88;2.15;;;;;;;2.27;86.27;101591.66;5112373;28;20116;-73
2023/01/31 04:17:05;;;;;;;8.25;1.95;;;;;;;2.22;86.15;101589.94;5113032;28;20412;-74
2023/01/31 04:20:11;;;;;;;12.38;2.60;;;;;;;2.17;85.87;101586.50;5112908;28;20045;-73
2023/01/31 04:23:15;;;;;;;11.10;2.53;;;;;;;2.01;86.49;101588.22;5110739;28;20042;-73
2023/01/31 04:26:18;;;;;;;12.05;3.75;;;;;;;2.06;86.29;101582.22;5112441;28;20090;-74
2023/01/31 04:29:21;;;;;;;12.07;2.80;;;;;;;2.02;86.50;101575.34;5113320;28;20043;-73
2023/01/31 04:32:26;;;;;;;15.95;2.42;;;;;;;2.00;85.70;101573.63;5113209;28;20416;-73
2023/01/31 04:35:30;;;;;;;11.93;2.55;;;;;;;1.97;85.85;101578.78;5112241;28;20126;-75
2023/01/31 04:38:33;;;;;;;;;;;;;;;1.96;85.53;101577.91;5111825;28;20101;-73
2023/01/31 04:41:36;;;;;;;10.55;2.33;;;;;;;1.91;85.83;101579.63;5099644;28;19923;-72
2023/01/31 04:44:39;;;;;;;14.18;2.58;;;;;;;1.78;85.80;101583.91;5111906;28;20043;-72
2023/01/31 04:47:43;;;;;;;12.07;3.55;;;;;;;1.82;86.29;101574.50;5111398;28;20042;-73
2023/01/31 04:50:46;;;;;;;8.45;3.08;;;;;;;1.87;85.76;101577.91;5111940;28;20111;-74
2023/01/31 04:53:49;;;;;;;17.25;3.65;;;;;;;1.88;85.70;101582.19;5112831;28;20459;-73
2023/01/31 04:56:53;;;;;;;10.45;3.17;;;;;;;1.85;85.46;101571.88;5112186;28;20109;-77
2023/01/31 04:59:56;;;;;;;10.23;4.00;;;;;;;1.81;85.76;101583.06;5112159;28;20046;-75
2023/01/31 05:03:00;;;;;;;14.55;3.85;;;;;;;1.76;85.25;101575.34;5112806;28;20100;-73
2023/01/31 05:06:05;;;;;;;11.02;3.10;;;;;;;1.77;85.38;101576.19;5111045;28;20042;-76
2023/01/31 05:09:10;;;;;;;14.80;3.72;;;;;;;1.66;85.82;101577.88;5109838;28;20451;-74
2023/01/31 05:12:13;;;;;;;14.05;4.35;;;;;;;1.63;85.73;101584.78;5111996;28;20516;-75
2023/01/31 05:15:16;;;;;;;13.50;3.05;;;;;;;1.62;86.00;101571.88;5111667;28;20148;-79
2023/01/31 05:18:49;;;;;;;11.20;3.53;;;;;;;1.64;85.76;101588.22;5112154;28;20042;-77
2023/01/31 05:21:58;;;;;;;15.05;6.07;;;;;;;1.59;86.02;101572.72;5111446;28;20120;-75
2023/01/31 05:25:02;;;;;;;16.98;4.03;;;;;;;1.57;85.58;101579.63;5112317;28;20055;-77
2023/01/31 05:28:05;;;;;;;26.42;16.23;;;;;;;1.54;85.85;101569.28;5111612;28;20050;-78
2023/01/31 05:31:12;;;;;;;22.77;9.13;;;;;;;1.59;85.84;101562.41;5112452;28;20039;-76
2023/01/31 05:34:18;;;;;;;15.35;6.55;;;;;;;1.58;85.33;101568.44;5111813;28;20065;-76
2023/01/31 05:37:21;;;;;;;15.48;5.13;;;;;;;1.63;85.59;101560.72;5116216;28;20096;-81
2023/01/31 05:40:24;;;;;;;12.55;3.72;;;;;;;1.56;85.37;101562.44;5114960;28;20058;-83
2023/01/31 05:43:28;;;;;;;12.50;4.95;;;;;;;1.56;85.25;101565.00;5114716;28;20560;-73
2023/01/31 05:46:31;;;;;;;17.98;5.30;;;;;;;1.56;85.10;101562.44;5115192;28;20088;-72
2023/01/31 05:49:35;;;;;;;10.95;3.20;;;;;;;1.54;85.38;101558.13;5116076;28;20092;-72
2023/01/31 05:52:38;;;;;;;15.55;4.50;;;;;;;1.46;85.17;101555.53;5116059;28;20065;-73
2023/01/31 05:55:43;;;;;;;;;;;;;;;1.45;85.47;101564.13;5116719;28;20408;-73
2023/01/31 05:58:49;;;;;;;10.57;2.85;;;;;;;1.44;85.04;101546.94;5114985;28;19989;-73
2023/01/31 06:01:53;;;;;;;10.75;3.10;;;;;;;1.36;85.28;101564.09;5115928;28;20080;-73
2023/01/31 06:04:56;;;;;;;12.82;2.45;;;;;;;1.38;85.47;101559.81;5114954;28;20100;-73
2023/01/31 06:08:01;;;;;;;13.25;2.53;;;;;;;1.36;85.32;101561.53;5115817;28;20092;-73
2023/01/31 06:11:04;;;;;;;10.65;3.83;;;;;;;1.36;84.97;101549.50;5115688;28;20523;-73
2023/01/31 06:14:08;;;;;;;11.57;4.20;;;;;;;1.33;84.96;101556.34;5115637;28;20116;-70
2023/01/31 06:17:11;;;;;;;17.45;6.72;;;;;;;1.32;85.01;101559.81;5115404;28;20520;-74
2023/01/31 06:20:14;;;;;;;16.15;5.78;;;;;;;1.30;85.12;101561.50;5115103;28;20058;-73
2023/01/31 06:23:18;;;;;;;14.65;4.90;;;;;;;1.23;85.59;101568.34;5115701;28;20049;-74
2023/01/31 06:26:22;;;;;;;12.90;3.63;;;;;;;1.22;85.68;101570.94;5115284;28;20046;-74
2023/01/31 06:29:31;;;;;;;;;;;;;;;1.22;85.66;101571.81;5115770;28;20046;-73
2023/01/31 06:32:40;;;;;;;19.38;7.40;;;;;;;1.19;85.52;101570.94;5115360;28;19919;-73
2023/01/31 06:35:44;;;;;;;15.07;5.55;;;;;;;1.24;85.12;101569.22;5115304;28;20046;-75
2023/01/31 06:39:31;;;;;;;15.95;7.13;;;;;;;1.24;85.35;101569.22;5115044;28;20043;-75
2023/01/31 06:42:38;;;;;;;20.27;7.47;;;;;;;1.20;85.52;101560.63;5115370;27;20046;-75
2023/01/31 06:45:43;;;;;;;22.23;5.60;;;;;;;1.13;86.02;101571.75;5114970;28;20073;-75
2023/01/31 06:49:17;;;;;;;17.55;5.43;;;;;;;1.33;89.30;101570.09;5114246;28;20046;-75
2023/01/31 06:52:24;;;;;;;21.92;6.53;;;;;;;1.57;88.77;101577.03;5114087;28;20482;-74
2023/01/31 06:55:28;;;;;;;23.25;7.05;;;;;;;1.77;88.00;101573.63;5114338;28;20043;-74
2023/01/31 06:58:32;;;;;;;23.45;6.90;;;;;;;1.85;87.17;101579.63;5114772;28;20089;-74
2023/01/31 07:01:35;;;;;;;16.52;6.20;;;;;;;1.86;87.55;101578.78;5114810;28;20095;-73
2023/01/31 07:04:39;;;;;;;16.65;4.50;;;;;;;1.96;86.89;101570.19;5114804;28;20043;-74
2023/01/31 07:07:42;;;;;;;24.13;6.13;;;;;;;2.01;87.04;101575.31;5114699;28;20039;-74
2023/01/31 07:10:47;;;;;;;17.13;5.57;;;;;;;1.93;86.80;101570.19;5114879;28;20108;-74
2023/01/31 07:13:50;;;;;;;16.60;5.30;;;;;;;1.98;86.85;101575.31;5113896;28;20046;-77
2023/01/31 07:16:53;;;;;;;14.48;4.50;;;;;;;1.96;86.74;101570.19;5114490;28;20450;-77
2023/01/31 07:19:56;;;;;;;18.55;4.72;;;;;;;1.99;86.85;101569.31;5113532;28;20096;-77
2023/01/31 07:28:10;;;;;;;21.48;6.20;;;;;;;2.07;86.38;101565.91;5053389;28;20418;-76
2023/01/31 07:31:13;;;;;;;19.50;5.10;;;;;;;2.84;88.67;101567.44;5053547;28;20094;-78
2023/01/31 07:34:17;;;;;;;21.15;4.75;;;;;;;2.33;85.03;101562.41;5053574;28;20086;-75
2023/01/31 07:37:20;;;;;;;21.48;6.10;;;;;;;2.28;85.95;101557.25;5053367;28;20096;-79
2023/01/31 07:40:24;;;;;;;19.77;4.95;;;;;;;2.34;85.86;101558.97;5053375;28;20090;-77
2023/01/31 07:43:28;;;;;;;;;;;;;;;2.37;85.22;101569.28;5053749;28;20051;-76
2023/01/31 07:46:31;;;;;;;17.45;5.47;;;;;;;2.38;85.78;101565.84;5053210;28;19970;-77
2023/01/31 07:49:34;;;;;;;19.73;5.35;;;;;;;3.23;86.32;101556.06;5053552;28;20509;-71
2023/01/31 07:52:37;;;;;;;;;;;;;;;3.32;84.63;101566.34;5053600;28;20048;-71
2023/01/31 07:55:40;;;;;;;17.77;5.70;;;;;;;3.75;84.56;101563.47;5040800;28;20022;-71
2023/01/31 07:58:45;;;;;;;20.27;6.82;;;;;;;3.16;82.23;101563.00;5052386;28;20446;-77
2023/01/31 08:05:11;;;;;;;20.15;5.28;;;;;;;2.71;84.03;101566.59;5052999;28;20135;-78
2023/01/31 08:08:14;;;;;;;;;;;;;;;2.69;84.52;101565.78;5053414;28;20036;-79
2023/01/31 08:11:17;;;;;;;22.67;6.15;;;;;;;2.56;84.63;101570.13;5052926;28;19920;-74
2023/01/31 08:14:25;;;;;;;19.23;5.53;;;;;;;2.52;85.16;101553.78;5052744;28;20466;-78
2023/01/31 08:17:28;;;;;;;18.38;4.65;;;;;;;2.49;84.83;101558.94;5052662;28;20044;-75
2023/01/31 08:20:32;;;;;;;19.92;5.55;;;;;;;3.59;86.52;101554.13;5052674;28;20051;-77
2023/01/31 08:23:37;;;;;;;16.55;4.13;;;;;;;3.06;82.77;101550.09;5052753;28;20047;-71
2023/01/31 08:26:42;;;;;;;16.30;4.80;;;;;;;2.84;83.56;101539.91;5071350;28;20059;-71
2023/01/31 08:29:45;;;;;;;13.65;4.78;;;;;;;2.68;84.15;101543.38;5092927;28;20058;-72
2023/01/31 08:32:49;;;;;;;30.05;6.30;;;;;;;2.77;84.06;101530.44;5092692;28;20642;-71
2023/01/31 08:35:53;;;;;;;30.90;6.93;;;;;;;2.78;84.19;101529.59;5093140;28;20086;-79
2023/01/31 08:38:56;;;;;;;17.70;6.03;;;;;;;2.82;83.97;101526.13;5092850;28;20083;-76
2023/01/31 08:42:00;;;;;;;20.63;5.95;;;;;;;2.83;83.65;101527.81;5092848;28;20096;-77
2023/01/31 08:45:03;;;;;;;;;;;;;;;2.86;83.42;101525.22;5093248;28;20043;-74
2023/01/31 08:48:07;;;;;;;17.35;5.53;;;;;;;2.91;83.49;101526.09;5092840;28;19923;-74
2023/01/31 08:51:13;;;;;;;20.65;6.03;;;;;;;2.93;82.80;101526.06;5092990;28;20105;-74
2023/01/31 08:54:16;;;;;;;21.20;7.90;;;;;;;3.04;82.51;101524.28;5092716;28;20526;-74
2023/01/31 08:57:20;;;;;;;20.20;5.10;;;;;;;3.09;82.00;101544.94;5091694;28;20455;-74
2023/01/31 09:00:23;;;;;;;17.63;6.47;;;;;;;3.10;82.67;101541.50;5091976;28;20039;-74
2023/01/31 09:03:26;;;;;;;19.77;5.60;;;;;;;3.26;82.48;101556.06;5092902;28;20063;-76
2023/01/31 09:06:30;;;;;;;21.13;7.72;;;;;;;3.44;82.02;101574.00;5092611;28;20035;-77
2023/01/31 09:09:33;;;;;;;22.17;6.13;;;;;;;3.34;81.54;101569.78;5093911;28;20075;-76
2023/01/31 09:12:36;;;;;;;13.50;5.32;;;;;;;3.16;81.09;101582.78;5096583;28;20090;-76
2023/01/31 09:15:40;;;;;;;14.02;3.58;;;;;;;3.15;81.23;101565.56;5096561;28;20515;-77
2023/01/31 09:18:43;;;;;;;20.55;6.75;;;;;;;3.11;81.71;101532.88;5096291;28;20576;-76
2023/01/31 09:21:46;;;;;;;20.00;6.68;;;;;;;3.11;81.53;101549.22;5096356;28;20495;-78
2023/01/31 09:24:49;;;;;;;17.38;5.88;;;;;;;3.14;81.37;101532.84;5096543;28;20051;-78
2023/01/31 09:27:53;;;;;;;14.23;4.90;;;;;;;3.19;81.60;101533.66;5096004;28;20121;-79
2023/01/31 09:31:02;;;;;;;15.90;4.78;;;;;;;3.36;81.81;101518.06;5096218;28;20470;-78
2023/01/31 09:34:06;;;;;;;23.48;5.43;;;;;;;4.05;83.26;101525.28;5096396;28;20044;-65
2023/01/31 09:37:09;;;;;;;16.77;5.13;;;;;;;4.05;79.75;101528.75;5095987;28;20097;-68
2023/01/31 09:40:22;;;;;;;14.25;5.70;;;;;;;3.61;79.97;101534.28;5096213;28;20073;-77
2023/01/31 09:43:39;;;;;;;14.57;4.85;;;;;;;3.57;80.98;101540.31;5095029;28;20177;-76
2023/01/31 09:46:46;;;;;;;;;;;;;;;3.61;80.17;101542.03;5096517;28;20051;-81
2023/01/31 09:49:53;;;;;;;14.70;5.47;;;;;;;3.56;80.63;101548.97;5096054;28;19919;-78
2023/01/31 09:52:57;;;;;;;17.83;5.85;;;;;;;3.54;80.23;101543.78;5096121;28;20055;-78
2023/01/31 09:56:03;;;;;;;16.60;6.47;;;;;;;3.40;79.84;101536.13;5094950;28;20554;-78
2023/01/31 09:59:34;;;;;;;13.32;5.53;;;;;;;3.51;80.09;101538.66;5094768;28;20571;-82
2023/01/31 10:03:08;;;;;;;29.88;15.52;;;;;;;3.53;80.46;101536.06;5094752;28;20079;-81
2023/01/31 10:06:20;;;;;;;25.38;14.43;;;;;;;3.48;79.74;101543.84;5095448;28;20580;-79
2023/01/31 10:09:34;;;;;;;22.83;14.93;;;;;;;3.43;80.45;101550.78;5095479;28;20043;-81
2023/01/31 10:12:46;;;;;;;16.55;7.65;;;;;;;3.42;80.60;101560.25;5095292;28;20047;-80
2023/01/31 10:15:58;;;;;;;15.25;5.30;;;;;;;3.38;80.11;101553.41;5095451;28;20131;-78
2023/01/31 10:19:07;;;;;;;11.77;6.05;;;;;;;3.38;80.23;101543.06;5095250;28;20157;-77
2023/01/31 10:22:18;;;;;;;13.00;5.60;;;;;;;3.37;80.40;101528.41;5094462;28;20046;-76
2023/01/31 10:25:27;;;;;;;21.23;6.47;;;;;;;3.40;80.41;101514.59;5095117;28;20149;-77
2023/01/31 10:28:49;;;;;;;17.85;6.82;;;;;;;3.42;80.33;101513.72;5094997;28;20340;-73
2023/01/31 10:32:20;;;;;;;18.63;6.00;;;;;;;3.52;80.04;101503.31;5094955;28;20042;-74
2023/01/31 10:35:29;;;;;;;17.80;5.72;;;;;;;3.62;79.79;101507.53;5095216;28;20050;-73
2023/01/31 10:38:48;;;;;;;18.15;8.27;;;;;;;3.63;80.01;101504.06;5095003;28;20039;-73
2023/01/31 10:42:14;;;;;;;16.05;6.82;;;;;;;3.64;79.34;101495.47;5094776;28;20042;-73
2023/01/31 10:45:29;;;;;;;20.13;8.95;;;;;;;3.61;79.28;101498.06;5094662;28;20051;-73
2023/01/31 10:48:32;;;;;;;15.63;6.53;;;;;;;3.48;79.58;101484.38;5093081;28;20119;-75
2023/01/31 10:51:55;;;;;;;16.63;8.10;;;;;;;3.52;79.67;101467.13;5091940;28;20093;-82
2023/01/31 10:55:24;;;;;;;16.15;6.13;;;;;;;3.71;79.31;101471.25;5094119;28;20051;-81
2023/01/31 10:58:28;;;;;;;18.15;8.40;;;;;;;3.72;79.30;101463.47;5084553;28;20046;-79
2023/01/31 11:01:31;;;;;;;18.42;9.80;;;;;;;3.82;79.38;101466.84;5094313;28;20043;-80
2023/01/31 11:04:40;;;;;;;16.55;6.53;;;;;;;3.74;78.80;101458.31;5094330;28;20089;-81
2023/01/31 11:07:45;;;;;;;13.82;6.60;;;;;;;3.65;79.33;101460.97;5112190;28;20446;-79
2023/01/31 11:10:54;;;;;;;17.60;6.40;;;;;;;3.63;79.37;101460.09;5114279;28;20043;-79
2023/01/31 11:14:03;;;;;;;13.02;6.25;;;;;;;3.60;79.39;101436.84;5114370;28;20050;-80
2023/01/31 11:17:36;;;;;;;15.35;6.10;;;;;;;3.62;79.48;101433.41;5114393;28;20109;-79
2023/01/31 11:20:45;;;;;;;16.33;7.45;;;;;;;3.61;79.32;101425.66;5113657;28;20512;-75
2023/01/31 11:23:50;;;;;;;15.75;8.40;;;;;;;3.65;79.71;101427.34;5113920;28;20046;-77
2023/01/31 11:27:05;;;;;;;18.20;8.43;;;;;;;3.86;80.21;101410.75;5113329;28;20185;-76
2023/01/31 11:30:30;;;;;;;98.88;59.45;;;;;;;3.85;78.91;101409.88;5114121;28;20043;-76
2023/01/31 11:33:53;;;;;;;19.63;8.50;;;;;;;3.75;79.04;101403.09;5113158;28;20042;-80
2023/01/31 11:37:11;;;;;;;27.08;9.98;;;;;;;3.80;79.13;101390.09;5113432;28;20107;-82
2023/01/31 11:40:15;;;;;;;16.38;8.25;;;;;;;3.71;79.11;101380.72;5112353;28;20045;-83
2023/01/31 11:43:18;;;;;;;19.25;8.30;;;;;;;3.69;79.58;101378.13;5113007;28;20228;-81
2023/01/31 11:46:22;;;;;;;17.08;8.30;;;;;;;3.61;79.40;101385.13;5113183;28;20114;-80
2023/01/31 11:49:40;;;;;;;18.02;8.10;;;;;;;3.73;79.75;101376.38;5101377;28;20066;-82
2023/01/31 11:52:43;;;;;;;14.10;6.43;;;;;;;3.68;79.43;101348.00;5113825;28;20101;-81
2023/01/31 11:55:49;;;;;;;15.30;7.18;;;;;;;3.78;79.38;101335.81;5113179;28;20074;-81
2023/01/31 11:59:06;;;;;;;11.32;6.25;;;;;;;3.75;78.96;101333.25;5112128;28;20146;-81
2023/01/31 12:02:25;;;;;;;13.00;5.38;;;;;;;3.88;79.46;101318.44;5112098;28;20043;-81
2023/01/31 12:05:40;;;;;;;12.50;5.68;;;;;;;3.77;79.19;101331.53;5113520;28;20050;-80
2023/01/31 12:08:43;;;;;;;15.50;6.50;;;;;;;3.78;79.75;101302.19;5113310;28;20409;-81
2023/01/31 12:11:57;;;;;;;;;;;;;;;3.92;79.67;101313.25;5113888;28;20050;-81
2023/01/31 12:15:04;;;;;;;11.55;6.82;;;;;;;3.83;80.03;101305.59;5101189;28;19918;-81
2023/01/31 12:18:10;;;;;;;17.77;7.63;;;;;;;4.05;79.20;101297.53;5112071;28;20105;-83
2023/01/31 12:21:15;;;;;;;16.95;6.47;;;;;;;3.98;79.34;101281.22;5113408;28;20066;-81
2023/01/31 12:25:21;;;;;;;11.93;5.65;;;;;;;4.04;79.26;101277.72;5113362;28;20045;-82
2023/01/31 12:28:34;;;;;;;12.20;6.93;;;;;;;4.09;79.33;101269.03;5034375;28;20137;-78
2023/01/31 12:31:49;;;;;;;12.32;4.68;;;;;;;3.92;79.29;101271.84;5112725;28;20043;-81
2023/01/31 12:35:38;;;;;;;11.90;6.60;;;;;;;4.01;79.86;101272.56;5111884;28;20051;-82
2023/01/31 12:39:22;;;;;;;12.20;6.30;;;;;;;4.08;79.78;101277.63;5110902;28;20161;-87
2023/01/31 12:42:52;;;;;;;10.13;4.72;;;;;;;4.21;79.18;101278.31;5111416;28;20511;-83
2023/01/31 12:46:30;;;;;;;11.25;4.10;;;;;;;4.17;79.12;101276.66;5116109;28;20066;-82
2023/01/31 12:49:44;;;;;;;13.18;4.68;;;;;;;4.22;78.99;101269.72;5115594;28;20050;-79
2023/01/31 12:53:12;;;;;;;12.32;4.70;;;;;;;4.32;79.45;101255.75;5116125;28;20050;-80
2023/01/31 12:56:15;;;;;;;9.73;4.63;;;;;;;4.27;79.55;101248.91;5117247;28;20076;-77
2023/01/31 13:04:08;;;;;;;14.63;5.10;;;;;;;4.05;81.05;101240.59;5117467;28;20179;-75
2023/01/31 13:07:20;;;;;;;11.07;4.50;;;;;;;4.22;81.11;101241.22;5116315;28;20084;-75
2023/01/31 13:10:38;;;;;;;13.68;7.53;;;;;;;4.19;81.42;101244.72;5116177;28;20507;-77
2023/01/31 13:14:11;;;;;;;10.82;5.30;;;;;;;4.22;82.08;101246.41;5115546;28;20038;-81
2023/01/31 13:17:25;;;;;;;14.77;6.40;;;;;;;4.21;81.92;101242.09;5116793;28;20046;-77
2023/01/31 13:20:41;;;;;;;18.42;6.70;;;;;;;4.28;81.96;101248.06;5115461;28;20062;-75
2023/01/31 13:23:52;;;;;;;11.80;4.47;;;;;;;4.23;82.28;101258.47;5096028;28;20042;-74
2023/01/31 13:27:26;;;;;;;13.65;5.20;;;;;;;4.22;82.77;101264.53;5104426;28;20050;-75
2023/01/31 13:30:43;;;;;;;12.43;5.15;;;;;;;4.24;81.08;101247.22;5114756;28;20093;-76
2023/01/31 13:34:18;;;;;;;11.85;5.18;;;;;;;4.21;81.50;101247.25;5115221;28;20450;-73
2023/01/31 13:37:22;;;;;;;14.30;8.25;;;;;;;4.26;80.75;101255.84;5115407;28;20537;-77
2023/01/31 13:40:30;;;;;;;10.27;5.55;;;;;;;4.35;80.98;101254.84;5116367;28;20042;-74
2023/01/31 13:43:33;;;;;;;11.52;6.25;;;;;;;4.32;80.66;101250.56;5116143;28;20409;-75
2023/01/31 13:46:52;;;;;;;12.52;5.63;;;;;;;4.32;80.80;101250.56;5114755;28;20047;-76
2023/01/31 13:50:37;;;;;;;15.88;9.32;;;;;;;4.31;81.02;101248.88;5115562;28;20063;-73
2023/01/31 13:54:11;;;;;;;14.10;8.15;;;;;;;4.31;81.05;101254.03;5115477;28;20092;-79
2023/01/31 13:57:24;;;;;;;15.15;8.00;;;;;;;4.31;81.15;101238.50;5113257;28;20058;-76
2023/01/31 14:00:39;;;;;;;13.82;7.13;;;;;;;4.39;81.04;101235.78;5115731;27;20082;-74
2023/01/31 14:04:20;;;;;;;7.90;4.28;;;;;;;4.51;80.63;101237.34;5114586;28;20413;-79
2023/01/31 14:07:25;;;;;;;11.95;5.88;;;;;;;4.55;80.46;101236.41;5114573;28;20065;-75
2023/01/31 14:10:35;;;;;;;12.40;4.90;;;;;;;4.52;80.44;101231.28;5115526;28;20042;-76
2023/01/31 14:13:48;;;;;;;9.23;4.65;;;;;;;4.52;80.67;101233.88;5115927;28;20108;-75
2023/01/31 14:16:51;;;;;;;10.60;5.13;;;;;;;4.51;80.66;101235.59;5115450;28;20120;-77
2023/01/31 14:19:55;;;;;;;15.65;5.13;;;;;;;4.58;80.64;101242.38;5115496;28;20078;-75
2023/01/31 14:23:29;;;;;;;11.43;5.57;;;;;;;4.54;81.23;101243.31;5115602;28;20046;-75
2023/01/31 14:26:42;;;;;;;11.27;4.82;;;;;;;4.49;81.34;101236.50;5114423;28;20086;-75
2023/01/31 14:29:57;;;;;;;9.45;5.53;;;;;;;4.55;80.81;101229.50;5094240;28;20405;-75
2023/01/31 14:33:27;;;;;;;12.18;5.35;;;;;;;4.62;80.99;101214.69;5094903;28;20051;-75
2023/01/31 14:36:46;;;;;;;11.20;4.18;;;;;;;4.71;80.79;101222.31;5093545;28;20047;-74
2023/01/31 14:40:11;;;;;;;11.05;4.43;;;;;;;4.76;80.92;101210.16;5094393;28;20117;-75
2023/01/31 14:43:39;;;;;;;10.93;3.83;;;;;;;4.69;81.17;101224.09;5094198;28;20038;-73
2023/01/31 14:47:16;;;;;;;13.50;4.68;;;;;;;4.78;80.83;101213.56;5094142;28;20408;-73
2023/01/31 14:51:01;;;;;;;13.63;4.07;;;;;;;4.80;80.78;101211.81;5093234;28;20134;-73
2023/01/31 14:54:23;;;;;;;6.80;3.75;;;;;;;4.80;80.98;101214.41;5052415;28;20048;-72
2023/01/31 14:57:42;;;;;;;7.70;3.85;;;;;;;4.82;81.31;101209.19;5055685;28;20044;-73
2023/01/31 15:00:50;;;;;;;5.40;2.60;;;;;;;4.76;81.44;101204.97;5094392;28;20047;-72
2023/01/31 15:03:57;;;;;;;7.50;3.55;;;;;;;4.87;81.18;101207.38;5093618;28;20093;-72
2023/01/31 15:07:01;;;;;;;5.07;2.78;;;;;;;4.82;81.77;101210.06;5092810;28;20101;-75
2023/01/31 15:10:45;;;;;;;20.48;9.05;;;;;;;4.80;82.09;101198.00;5094192;28;20043;-73
2023/01/31 15:13:53;;;;;;;21.58;10.25;;;;;;;4.76;82.97;101207.56;5094260;28;20463;-70
2023/01/31 15:17:05;;;;;;;33.70;16.80;;;;;;;4.73;83.94;101210.22;5093098;28;20070;-70